sensor_id;sensor_type;location;lat;lon;timestamp;P1;durP1;ratioP1;P2;durP2;ratioP2
7539;SDS011;3811;49.006;12.076;2023-01-15T00:02:10;5.07;;;3.50;;
7539;SDS011;3811;49.006;12.076;2023-01-15T00:04:41;6.70;;;4.13;;
7539;SDS011;3811;49.006;12.076;2023-01-15T00:07:09;4.73;;;3.50;;
7539;SDS011;3811;49.006;12.076;2023-01-15T00:09:37;2.93;;;2.30;;
7539;SDS011;3811;49.006;12.076;2023-01-15T00:12:04;4.50;;;2.90;;
7539;SDS011;3811;49.006;12.076;2023-01-15T00:17:23;3.40;;;3.10;;
7539;SDS011;3811;49.006;12.076;2023-01-15T00:19:51;3.50;;;3.20;;
7539;SDS011;3811;49.006;12.076;2023-01-15T00:22:19;4.33;;;2.80;;
7539;SDS011;3811;49.006;12.076;2023-01-15T00:24:46;3.30;;;3.00;;
7539;SDS011;3811;49.006;12.076;2023-01-15T00:27:31;3.10;;;2.80;;
7539;SDS011;3811;49.006;12.076;2023-01-15T00:30:09;4.03;;;3.27;;
7539;SDS011;3811;49.006;12.076;2023-01-15T00:32:38;3.67;;;3.37;;
7539;SDS011;3811;49.006;12.076;2023-01-15T00:35:06;4.33;;;3.57;;
7539;SDS011;3811;49.006;12.076;2023-01-15T00:37:38;4.63;;;3.03;;
7539;SDS011;3811;49.006;12.076;2023-01-15T00:40:05;4.73;;;3.47;;
7539;SDS011;3811;49.006;12.076;2023-01-15T00:42:33;3.13;;;2.83;;
7539;SDS011;3811;49.006;12.076;2023-01-15T00:45:02;3.30;;;3.10;;
7539;SDS011;3811;49.006;12.076;2023-01-15T00:47:34;3.07;;;2.77;;
7539;SDS011;3811;49.006;12.076;2023-01-15T00:50:02;4.80;;;3.00;;
7539;SDS011;3811;49.006;12.076;2023-01-15T00:52:30;3.63;;;2.90;;
7539;SDS011;3811;49.006;12.076;2023-01-15T00:54:59;2.87;;;2.63;;
7539;SDS011;3811;49.006;12.076;2023-01-15T00:57:28;3.80;;;3.13;;
7539;SDS011;3811;49.006;12.076;2023-01-15T00:59:55;3.50;;;3.20;;
7539;SDS011;3811;49.006;12.076;2023-01-15T01:02:23;2.93;;;2.63;;
7539;SDS011;3811;49.006;12.076;2023-01-15T01:04:51;4.47;;;2.90;;
7539;SDS011;3811;49.006;12.076;2023-01-15T01:07:18;3.03;;;2.57;;
7539;SDS011;3811;49.006;12.076;2023-01-15T01:09:45;3.17;;;2.63;;
7539;SDS011;3811;49.006;12.076;2023-01-15T01:12:14;3.17;;;2.60;;
7539;SDS011;3811;49.006;12.076;2023-01-15T01:14:42;3.13;;;2.83;;
7539;SDS011;3811;49.006;12.076;2023-01-15T01:17:09;2.83;;;2.63;;
7539;SDS011;3811;49.006;12.076;2023-01-15T01:19:37;3.57;;;2.70;;
7539;SDS011;3811;49.006;12.076;2023-01-15T01:22:06;4.63;;;2.80;;
7539;SDS011;3811;49.006;12.076;2023-01-15T01:24:33;3.20;;;2.90;;
7539;SDS011;3811;49.006;12.076;2023-01-15T01:27:00;3.07;;;2.73;;
7539;SDS011;3811;49.006;12.076;2023-01-15T01:29:29;3.80;;;2.57;;
7539;SDS011;3811;49.006;12.076;2023-01-15T01:31:56;2.50;;;2.30;;
7539;SDS011;3811;49.006;12.076;2023-01-15T01:34:23;3.90;;;2.53;;
7539;SDS011;3811;49.006;12.076;2023-01-15T01:36:50;3.03;;;2.43;;
7539;SDS011;3811;49.006;12.076;2023-01-15T01:39:18;2.80;;;2.30;;
7539;SDS011;3811;49.006;12.076;2023-01-15T01:41:46;2.90;;;2.07;;
7539;SDS011;3811;49.006;12.076;2023-01-15T01:47:01;2.53;;;2.30;;
7539;SDS011;3811;49.006;12.076;2023-01-15T01:49:30;3.00;;;2.30;;
7539;SDS011;3811;49.006;12.076;2023-01-15T01:51:58;2.53;;;2.20;;
7539;SDS011;3811;49.006;12.076;2023-01-15T01:54:29;2.77;;;2.30;;
7539;SDS011;3811;49.006;12.076;2023-01-15T01:56:59;2.53;;;2.33;;
7539;SDS011;3811;49.006;12.076;2023-01-15T01:59:26;3.20;;;2.30;;
7539;SDS011;3811;49.006;12.076;2023-01-15T02:01:53;3.33;;;2.17;;
7539;SDS011;3811;49.006;12.076;2023-01-15T02:04:22;3.10;;;2.80;;
7539;SDS011;3811;49.006;12.076;2023-01-15T02:06:51;4.07;;;2.80;;
7539;SDS011;3811;49.006;12.076;2023-01-15T02:09:19;2.60;;;2.40;;
7539;SDS011;3811;49.006;12.076;2023-01-15T02:11:47;3.60;;;2.97;;
7539;SDS011;3811;49.006;12.076;2023-01-15T02:14:20;4.97;;;2.67;;
7539;SDS011;3811;49.006;12.076;2023-01-15T02:16:51;4.17;;;2.53;;
7539;SDS011;3811;49.006;12.076;2023-01-15T02:19:28;3.00;;;2.70;;
7539;SDS011;3811;49.006;12.076;2023-01-15T02:21:57;2.70;;;2.50;;
7539;SDS011;3811;49.006;12.076;2023-01-15T02:24:29;3.83;;;2.97;;
7539;SDS011;3811;49.006;12.076;2023-01-15T02:27:10;3.13;;;2.50;;
7539;SDS011;3811;49.006;12.076;2023-01-15T02:29:44;3.53;;;2.73;;
7539;SDS011;3811;49.006;12.076;2023-01-15T02:32:19;4.23;;;2.87;;
7539;SDS011;3811;49.006;12.076;2023-01-15T02:34:51;3.47;;;2.93;;
7539;SDS011;3811;49.006;12.076;2023-01-15T02:37:22;5.67;;;3.00;;
7539;SDS011;3811;49.006;12.076;2023-01-15T02:39:52;4.83;;;2.80;;
7539;SDS011;3811;49.006;12.076;2023-01-15T02:42:24;3.53;;;2.50;;
7539;SDS011;3811;49.006;12.076;2023-01-15T02:44:55;4.20;;;2.73;;
7539;SDS011;3811;49.006;12.076;2023-01-15T02:47:26;5.17;;;3.10;;
7539;SDS011;3811;49.006;12.076;2023-01-15T02:49:58;3.77;;;3.00;;
7539;SDS011;3811;49.006;12.076;2023-01-15T02:52:30;4.23;;;2.70;;
7539;SDS011;3811;49.006;12.076;2023-01-15T02:55:02;3.70;;;2.50;;
7539;SDS011;3811;49.006;12.076;2023-01-15T02:57:36;2.73;;;2.47;;
7539;SDS011;3811;49.006;12.076;2023-01-15T03:00:06;4.40;;;2.53;;
7539;SDS011;3811;49.006;12.076;2023-01-15T03:02:37;2.67;;;2.47;;
7539;SDS011;3811;49.006;12.076;2023-01-15T03:05:07;2.80;;;2.60;;
7539;SDS011;3811;49.006;12.076;2023-01-15T03:07:39;2.87;;;2.60;;
7539;SDS011;3811;49.006;12.076;2023-01-15T03:10:12;3.43;;;2.70;;
7539;SDS011;3811;49.006;12.076;2023-01-15T03:12:42;2.83;;;2.50;;
7539;SDS011;3811;49.006;12.076;2023-01-15T03:15:40;3.00;;;2.70;;
7539;SDS011;3811;49.006;12.076;2023-01-15T03:18:26;6.87;;;3.03;;
7539;SDS011;3811;49.006;12.076;2023-01-15T03:20:56;2.60;;;2.40;;
7539;SDS011;3811;49.006;12.076;2023-01-15T03:23:25;2.67;;;2.20;;
7539;SDS011;3811;49.006;12.076;2023-01-15T03:25:54;5.27;;;2.93;;
7539;SDS011;3811;49.006;12.076;2023-01-15T03:28:41;2.60;;;2.40;;
7539;SDS011;3811;49.006;12.076;2023-01-15T03:31:09;3.63;;;2.97;;
7539;SDS011;3811;49.006;12.076;2023-01-15T03:33:37;2.70;;;2.43;;
7539;SDS011;3811;49.006;12.076;2023-01-15T03:36:11;3.80;;;2.70;;
7539;SDS011;3811;49.006;12.076;2023-01-15T03:38:42;3.20;;;2.90;;
7539;SDS011;3811;49.006;12.076;2023-01-15T03:41:18;2.77;;;2.47;;
7539;SDS011;3811;49.006;12.076;2023-01-15T03:43:57;2.57;;;2.20;;
7539;SDS011;3811;49.006;12.076;2023-01-15T03:49:28;2.70;;;2.00;;
7539;SDS011;3811;49.006;12.076;2023-01-15T03:52:13;4.20;;;2.40;;
7539;SDS011;3811;49.006;12.076;2023-01-15T03:54:45;3.80;;;2.33;;
7539;SDS011;3811;49.006;12.076;2023-01-15T03:57:19;2.43;;;2.23;;
7539;SDS011;3811;49.006;12.076;2023-01-15T03:59:55;2.30;;;2.20;;
7539;SDS011;3811;49.006;12.076;2023-01-15T04:02:24;1.83;;;1.73;;
7539;SDS011;3811;49.006;12.076;2023-01-15T04:04:55;3.57;;;2.13;;
7539;SDS011;3811;49.006;12.076;2023-01-15T04:07:24;2.23;;;2.13;;
7539;SDS011;3811;49.006;12.076;2023-01-15T04:09:51;3.17;;;2.60;;
7539;SDS011;3811;49.006;12.076;2023-01-15T04:12:30;2.13;;;2.03;;
7539;SDS011;3811;49.006;12.076;2023-01-15T04:14:59;2.17;;;1.97;;
7539;SDS011;3811;49.006;12.076;2023-01-15T04:17:27;2.53;;;2.20;;
7539;SDS011;3811;49.006;12.076;2023-01-15T04:19:54;2.40;;;2.20;;
7539;SDS011;3811;49.006;12.076;2023-01-15T04:22:23;5.03;;;1.90;;
7539;SDS011;3811;49.006;12.076;2023-01-15T04:24:50;4.53;;;2.00;;
7539;SDS011;3811;49.006;12.076;2023-01-15T04:27:19;2.40;;;2.10;;
7539;SDS011;3811;49.006;12.076;2023-01-15T04:29:46;2.37;;;2.27;;
7539;SDS011;3811;49.006;12.076;2023-01-15T04:32:15;3.87;;;2.43;;
7539;SDS011;3811;49.006;12.076;2023-01-15T04:34:42;2.10;;;2.00;;
7539;SDS011;3811;49.006;12.076;2023-01-15T04:37:09;2.10;;;1.90;;
7539;SDS011;3811;49.006;12.076;2023-01-15T04:39:36;1.97;;;1.83;;
7539;SDS011;3811;49.006;12.076;2023-01-15T04:42:04;2.57;;;2.30;;
7539;SDS011;3811;49.006;12.076;2023-01-15T04:44:49;2.47;;;2.27;;
7539;SDS011;3811;49.006;12.076;2023-01-15T04:47:17;4.33;;;2.67;;
7539;SDS011;3811;49.006;12.076;2023-01-15T04:49:44;2.77;;;2.50;;
7539;SDS011;3811;49.006;12.076;2023-01-15T04:52:12;3.13;;;2.60;;
7539;SDS011;3811;49.006;12.076;2023-01-15T04:54:39;2.23;;;2.13;;
7539;SDS011;3811;49.006;12.076;2023-01-15T04:57:06;4.80;;;2.53;;
7539;SDS011;3811;49.006;12.076;2023-01-15T04:59:34;2.70;;;2.50;;
7539;SDS011;3811;49.006;12.076;2023-01-15T05:02:01;3.13;;;2.63;;
7539;SDS011;3811;49.006;12.076;2023-01-15T05:04:30;2.40;;;2.20;;
7539;SDS011;3811;49.006;12.076;2023-01-15T05:06:57;4.17;;;2.43;;
7539;SDS011;3811;49.006;12.076;2023-01-15T05:09:24;3.77;;;2.80;;
7539;SDS011;3811;49.006;12.076;2023-01-15T05:11:52;2.60;;;2.40;;
7539;SDS011;3811;49.006;12.076;2023-01-15T05:14:19;7.10;;;3.07;;
7539;SDS011;3811;49.006;12.076;2023-01-15T05:16:46;3.77;;;2.73;;
7539;SDS011;3811;49.006;12.076;2023-01-15T05:19:13;3.30;;;2.83;;
7539;SDS011;3811;49.006;12.076;2023-01-15T05:21:43;3.17;;;2.67;;
7539;SDS011;3811;49.006;12.076;2023-01-15T05:24:11;2.90;;;2.50;;
7539;SDS011;3811;49.006;12.076;2023-01-15T05:26:40;2.63;;;2.43;;
7539;SDS011;3811;49.006;12.076;2023-01-15T05:29:09;4.07;;;2.70;;
7539;SDS011;3811;49.006;12.076;2023-01-15T05:31:36;3.20;;;2.90;;
7539;SDS011;3811;49.006;12.076;2023-01-15T05:34:05;4.70;;;2.77;;
7539;SDS011;3811;49.006;12.076;2023-01-15T05:36:33;2.90;;;2.63;;
7539;SDS011;3811;49.006;12.076;2023-01-15T05:39:03;3.80;;;2.50;;
7539;SDS011;3811;49.006;12.076;2023-01-15T05:41:30;4.30;;;2.83;;
7539;SDS011;3811;49.006;12.076;2023-01-15T05:44:17;4.47;;;3.13;;
7539;SDS011;3811;49.006;12.076;2023-01-15T05:46:45;2.80;;;2.60;;
7539;SDS011;3811;49.006;12.076;2023-01-15T05:49:14;3.30;;;2.57;;
7539;SDS011;3811;49.006;12.076;2023-01-15T05:51:41;3.50;;;2.93;;
7539;SDS011;3811;49.006;12.076;2023-01-15T05:54:11;3.20;;;2.77;;
7539;SDS011;3811;49.006;12.076;2023-01-15T05:56:39;4.83;;;3.10;;
7539;SDS011;3811;49.006;12.076;2023-01-15T05:59:08;3.87;;;2.93;;
7539;SDS011;3811;49.006;12.076;2023-01-15T06:01:35;6.73;;;3.10;;
7539;SDS011;3811;49.006;12.076;2023-01-15T06:04:03;2.83;;;2.63;;
7539;SDS011;3811;49.006;12.076;2023-01-15T06:06:32;4.50;;;2.87;;
7539;SDS011;3811;49.006;12.076;2023-01-15T06:09:00;3.30;;;3.00;;
7539;SDS011;3811;49.006;12.076;2023-01-15T06:11:29;2.90;;;2.67;;
7539;SDS011;3811;49.006;12.076;2023-01-15T06:13:56;4.20;;;3.20;;
7539;SDS011;3811;49.006;12.076;2023-01-15T06:16:24;3.73;;;2.90;;
7539;SDS011;3811;49.006;12.076;2023-01-15T06:18:51;3.40;;;3.10;;
7539;SDS011;3811;49.006;12.076;2023-01-15T06:21:18;3.57;;;2.60;;
7539;SDS011;3811;49.006;12.076;2023-01-15T06:23:51;2.50;;;2.40;;
7539;SDS011;3811;49.006;12.076;2023-01-15T06:26:18;3.80;;;2.73;;
7539;SDS011;3811;49.006;12.076;2023-01-15T06:28:48;3.40;;;3.20;;
7539;SDS011;3811;49.006;12.076;2023-01-15T06:31:17;2.87;;;2.63;;
7539;SDS011;3811;49.006;12.076;2023-01-15T06:33:45;2.90;;;2.50;;
7539;SDS011;3811;49.006;12.076;2023-01-15T06:36:13;2.50;;;2.30;;
7539;SDS011;3811;49.006;12.076;2023-01-15T06:38:41;2.47;;;2.27;;
7539;SDS011;3811;49.006;12.076;2023-01-15T06:41:09;2.97;;;2.33;;
7539;SDS011;3811;49.006;12.076;2023-01-15T06:43:53;4.03;;;2.53;;
7539;SDS011;3811;49.006;12.076;2023-01-15T06:46:39;3.53;;;2.50;;
7539;SDS011;3811;49.006;12.076;2023-01-15T06:49:27;2.63;;;2.43;;
7539;SDS011;3811;49.006;12.076;2023-01-15T06:51:54;2.80;;;2.60;;
7539;SDS011;3811;49.006;12.076;2023-01-15T06:54:22;3.20;;;2.53;;
7539;SDS011;3811;49.006;12.076;2023-01-15T06:56:49;3.00;;;2.80;;
7539;SDS011;3811;49.006;12.076;2023-01-15T06:59:18;5.83;;;2.97;;
7539;SDS011;3811;49.006;12.076;2023-01-15T07:01:45;2.87;;;2.37;;
7539;SDS011;3811;49.006;12.076;2023-01-15T07:04:13;3.63;;;2.83;;
7539;SDS011;3811;49.006;12.076;2023-01-15T07:06:42;3.00;;;2.60;;
7539;SDS011;3811;49.006;12.076;2023-01-15T07:09:10;2.77;;;2.50;;
7539;SDS011;3811;49.006;12.076;2023-01-15T07:11:37;2.50;;;2.30;;
7539;SDS011;3811;49.006;12.076;2023-01-15T07:14:13;3.00;;;2.70;;
7539;SDS011;3811;49.006;12.076;2023-01-15T07:16:42;3.13;;;2.60;;
7539;SDS011;3811;49.006;12.076;2023-01-15T07:19:09;4.73;;;2.47;;
7539;SDS011;3811;49.006;12.076;2023-01-15T07:21:37;4.87;;;2.60;;
7539;SDS011;3811;49.006;12.076;2023-01-15T07:24:04;2.70;;;2.50;;
7539;SDS011;3811;49.006;12.076;2023-01-15T07:26:48;5.07;;;2.63;;
7539;SDS011;3811;49.006;12.076;2023-01-15T07:29:16;4.67;;;2.43;;
7539;SDS011;3811;49.006;12.076;2023-01-15T07:31:44;2.80;;;2.50;;
7539;SDS011;3811;49.006;12.076;2023-01-15T07:34:12;3.17;;;2.10;;
7539;SDS011;3811;49.006;12.076;2023-01-15T07:36:39;2.87;;;2.30;;
7539;SDS011;3811;49.006;12.076;2023-01-15T07:39:07;2.97;;;2.73;;
7539;SDS011;3811;49.006;12.076;2023-01-15T07:41:35;5.13;;;2.73;;
7539;SDS011;3811;49.006;12.076;2023-01-15T07:44:21;4.43;;;3.10;;
7539;SDS011;3811;49.006;12.076;2023-01-15T07:47:09;3.10;;;2.80;;
7539;SDS011;3811;49.006;12.076;2023-01-15T07:50:00;3.20;;;2.90;;
7539;SDS011;3811;49.006;12.076;2023-01-15T07:52:27;2.40;;;2.20;;
7539;SDS011;3811;49.006;12.076;2023-01-15T07:54:54;2.63;;;2.43;;
7539;SDS011;3811;49.006;12.076;2023-01-15T07:57:21;2.37;;;2.00;;
7539;SDS011;3811;49.006;12.076;2023-01-15T07:59:49;2.93;;;2.50;;
7539;SDS011;3811;49.006;12.076;2023-01-15T08:02:18;2.60;;;2.40;;
7539;SDS011;3811;49.006;12.076;2023-01-15T08:04:45;2.57;;;2.30;;
7539;SDS011;3811;49.006;12.076;2023-01-15T08:07:12;4.03;;;2.40;;
7539;SDS011;3811;49.006;12.076;2023-01-15T08:09:40;3.63;;;1.90;;
7539;SDS011;3811;49.006;12.076;2023-01-15T08:12:08;2.13;;;1.97;;
7539;SDS011;3811;49.006;12.076;2023-01-15T08:14:54;3.00;;;1.80;;
7539;SDS011;3811;49.006;12.076;2023-01-15T08:17:42;1.97;;;1.77;;
7539;SDS011;3811;49.006;12.076;2023-01-15T08:20:10;1.87;;;1.77;;
7539;SDS011;3811;49.006;12.076;2023-01-15T08:22:38;2.20;;;2.00;;
7539;SDS011;3811;49.006;12.076;2023-01-15T08:25:06;2.87;;;2.37;;
7539;SDS011;3811;49.006;12.076;2023-01-15T08:27:34;1.90;;;1.80;;
7539;SDS011;3811;49.006;12.076;2023-01-15T08:30:01;2.30;;;2.10;;
7539;SDS011;3811;49.006;12.076;2023-01-15T08:32:48;1.97;;;1.87;;
7539;SDS011;3811;49.006;12.076;2023-01-15T08:35:16;2.20;;;1.70;;
7539;SDS011;3811;49.006;12.076;2023-01-15T08:37:43;1.70;;;1.60;;
7539;SDS011;3811;49.006;12.076;2023-01-15T08:40:11;2.00;;;1.90;;
7539;SDS011;3811;49.006;12.076;2023-01-15T08:42:38;2.00;;;1.90;;
7539;SDS011;3811;49.006;12.076;2023-01-15T08:45:06;2.40;;;2.20;;
7539;SDS011;3811;49.006;12.076;2023-01-15T08:50:28;3.30;;;2.43;;
7539;SDS011;3811;49.006;12.076;2023-01-15T08:52:55;2.40;;;2.20;;
7539;SDS011;3811;49.006;12.076;2023-01-15T08:55:21;2.77;;;2.57;;
7539;SDS011;3811;49.006;12.076;2023-01-15T08:57:49;3.50;;;3.13;;
7539;SDS011;3811;49.006;12.076;2023-01-15T09:02:56;5.17;;;2.93;;
7539;SDS011;3811;49.006;12.076;2023-01-15T09:05:23;2.63;;;2.40;;
7539;SDS011;3811;49.006;12.076;2023-01-15T09:07:53;1.80;;;1.70;;
7539;SDS011;3811;49.006;12.076;2023-01-15T09:10:21;1.00;;;1.00;;
7539;SDS011;3811;49.006;12.076;2023-01-15T09:12:48;1.07;;;1.00;;
7539;SDS011;3811;49.006;12.076;2023-01-15T09:15:15;2.57;;;2.00;;
7539;SDS011;3811;49.006;12.076;2023-01-15T09:17:43;2.33;;;2.10;;
7539;SDS011;3811;49.006;12.076;2023-01-15T09:20:11;3.37;;;2.87;;
7539;SDS011;3811;49.006;12.076;2023-01-15T09:22:39;9.90;;;5.63;;
7539;SDS011;3811;49.006;12.076;2023-01-15T09:25:09;6.47;;;4.40;;
7539;SDS011;3811;49.006;12.076;2023-01-15T09:27:36;3.20;;;2.30;;
7539;SDS011;3811;49.006;12.076;2023-01-15T09:30:03;3.33;;;2.50;;
7539;SDS011;3811;49.006;12.076;2023-01-15T09:32:35;1.73;;;1.43;;
7539;SDS011;3811;49.006;12.076;2023-01-15T09:35:02;1.17;;;1.10;;
7539;SDS011;3811;49.006;12.076;2023-01-15T09:37:30;0.80;;;0.80;;
7539;SDS011;3811;49.006;12.076;2023-01-15T09:39:57;0.80;;;0.80;;
7539;SDS011;3811;49.006;12.076;2023-01-15T09:42:39;0.60;;;0.60;;
7539;SDS011;3811;49.006;12.076;2023-01-15T09:45:13;0.40;;;0.40;;
7539;SDS011;3811;49.006;12.076;2023-01-15T09:47:46;0.60;;;0.60;;
7539;SDS011;3811;49.006;12.076;2023-01-15T09:50:28;0.70;;;0.70;;
7539;SDS011;3811;49.006;12.076;2023-01-15T09:53:02;0.60;;;0.60;;
7539;SDS011;3811;49.006;12.076;2023-01-15T09:55:33;0.90;;;0.90;;
7539;SDS011;3811;49.006;12.076;2023-01-15T09:58:07;0.60;;;0.60;;
7539;SDS011;3811;49.006;12.076;2023-01-15T10:00:37;0.70;;;0.70;;
7539;SDS011;3811;49.006;12.076;2023-01-15T10:03:06;0.50;;;0.50;;
7539;SDS011;3811;49.006;12.076;2023-01-15T10:05:40;0.90;;;0.90;;
7539;SDS011;3811;49.006;12.076;2023-01-15T10:10:52;0.60;;;0.60;;
7539;SDS011;3811;49.006;12.076;2023-01-15T10:13:24;0.90;;;0.90;;
7539;SDS011;3811;49.006;12.076;2023-01-15T10:15:53;0.83;;;0.83;;
7539;SDS011;3811;49.006;12.076;2023-01-15T10:18:21;0.50;;;0.50;;
7539;SDS011;3811;49.006;12.076;2023-01-15T10:20:53;0.93;;;0.80;;
7539;SDS011;3811;49.006;12.076;2023-01-15T10:23:33;0.60;;;0.60;;
7539;SDS011;3811;49.006;12.076;2023-01-15T10:26:04;0.70;;;0.70;;
7539;SDS011;3811;49.006;12.076;2023-01-15T10:28:53;0.60;;;0.60;;
7539;SDS011;3811;49.006;12.076;2023-01-15T10:31:27;0.83;;;0.83;;
7539;SDS011;3811;49.006;12.076;2023-01-15T10:34:11;0.60;;;0.60;;
7539;SDS011;3811;49.006;12.076;2023-01-15T10:36:44;0.77;;;0.77;;
7539;SDS011;3811;49.006;12.076;2023-01-15T10:39:16;0.60;;;0.60;;
7539;SDS011;3811;49.006;12.076;2023-01-15T10:41:54;0.90;;;0.90;;
7539;SDS011;3811;49.006;12.076;2023-01-15T10:44:31;0.70;;;0.70;;
7539;SDS011;3811;49.006;12.076;2023-01-15T10:47:10;0.50;;;0.50;;
7539;SDS011;3811;49.006;12.076;2023-01-15T10:49:39;0.40;;;0.40;;
7539;SDS011;3811;49.006;12.076;2023-01-15T10:52:11;1.13;;;0.40;;
7539;SDS011;3811;49.006;12.076;2023-01-15T10:54:59;0.50;;;0.50;;
7539;SDS011;3811;49.006;12.076;2023-01-15T10:57:35;0.30;;;0.30;;
7539;SDS011;3811;49.006;12.076;2023-01-15T11:00:08;2.20;;;0.70;;
7539;SDS011;3811;49.006;12.076;2023-01-15T11:02:38;0.50;;;0.50;;
7539;SDS011;3811;49.006;12.076;2023-01-15T11:05:11;0.40;;;0.40;;
7539;SDS011;3811;49.006;12.076;2023-01-15T11:07:43;0.57;;;0.57;;
7539;SDS011;3811;49.006;12.076;2023-01-15T11:10:13;0.70;;;0.70;;
7539;SDS011;3811;49.006;12.076;2023-01-15T11:12:43;0.50;;;0.50;;
7539;SDS011;3811;49.006;12.076;2023-01-15T11:15:35;0.80;;;0.80;;
7539;SDS011;3811;49.006;12.076;2023-01-15T11:18:22;0.70;;;0.70;;
7539;SDS011;3811;49.006;12.076;2023-01-15T11:21:11;0.57;;;0.57;;
7539;SDS011;3811;49.006;12.076;2023-01-15T11:23:39;0.47;;;0.47;;
7539;SDS011;3811;49.006;12.076;2023-01-15T11:26:06;0.40;;;0.40;;
7539;SDS011;3811;49.006;12.076;2023-01-15T11:28:34;0.60;;;0.60;;
7539;SDS011;3811;49.006;12.076;2023-01-15T11:31:06;0.90;;;0.90;;
7539;SDS011;3811;49.006;12.076;2023-01-15T11:33:33;1.47;;;1.20;;
7539;SDS011;3811;49.006;12.076;2023-01-15T11:36:02;0.83;;;0.83;;
7539;SDS011;3811;49.006;12.076;2023-01-15T11:38:41;0.70;;;0.70;;
7539;SDS011;3811;49.006;12.076;2023-01-15T11:44:21;0.90;;;0.90;;
7539;SDS011;3811;49.006;12.076;2023-01-15T11:47:10;0.50;;;0.50;;
7539;SDS011;3811;49.006;12.076;2023-01-15T11:49:55;0.70;;;0.70;;
7539;SDS011;3811;49.006;12.076;2023-01-15T11:52:40;0.60;;;0.60;;
7539;SDS011;3811;49.006;12.076;2023-01-15T11:55:13;0.60;;;0.60;;
7539;SDS011;3811;49.006;12.076;2023-01-15T11:57:43;0.70;;;0.70;;
7539;SDS011;3811;49.006;12.076;2023-01-15T12:00:18;0.60;;;0.60;;
7539;SDS011;3811;49.006;12.076;2023-01-15T12:02:48;0.70;;;0.70;;
7539;SDS011;3811;49.006;12.076;2023-01-15T12:05:18;0.70;;;0.70;;
7539;SDS011;3811;49.006;12.076;2023-01-15T12:07:47;0.50;;;0.50;;
7539;SDS011;3811;49.006;12.076;2023-01-15T12:10:16;0.53;;;0.53;;
7539;SDS011;3811;49.006;12.076;2023-01-15T12:13:09;0.50;;;0.50;;
7539;SDS011;3811;49.006;12.076;2023-01-15T12:18:32;0.57;;;0.57;;
7539;SDS011;3811;49.006;12.076;2023-01-15T12:21:03;0.50;;;0.50;;
7539;SDS011;3811;49.006;12.076;2023-01-15T12:23:36;0.40;;;0.40;;
7539;SDS011;3811;49.006;12.076;2023-01-15T12:26:12;0.67;;;0.67;;
7539;SDS011;3811;49.006;12.076;2023-01-15T12:28:48;0.50;;;0.50;;
7539;SDS011;3811;49.006;12.076;2023-01-15T12:31:24;0.50;;;0.50;;
7539;SDS011;3811;49.006;12.076;2023-01-15T12:33:56;0.50;;;0.50;;
7539;SDS011;3811;49.006;12.076;2023-01-15T12:36:26;0.50;;;0.50;;
7539;SDS011;3811;49.006;12.076;2023-01-15T12:38:56;0.50;;;0.50;;
7539;SDS011;3811;49.006;12.076;2023-01-15T12:41:42;0.60;;;0.60;;
7539;SDS011;3811;49.006;12.076;2023-01-15T12:44:30;0.50;;;0.50;;
7539;SDS011;3811;49.006;12.076;2023-01-15T12:47:18;0.50;;;0.50;;
7539;SDS011;3811;49.006;12.076;2023-01-15T12:49:54;0.60;;;0.60;;
7539;SDS011;3811;49.006;12.076;2023-01-15T12:52:27;0.83;;;0.80;;
7539;SDS011;3811;49.006;12.076;2023-01-15T12:55:00;0.63;;;0.63;;
7539;SDS011;3811;49.006;12.076;2023-01-15T12:57:35;0.60;;;0.60;;
7539;SDS011;3811;49.006;12.076;2023-01-15T13:00:06;0.63;;;0.63;;
7539;SDS011;3811;49.006;12.076;2023-01-15T13:02:39;0.50;;;0.50;;
7539;SDS011;3811;49.006;12.076;2023-01-15T13:05:31;0.67;;;0.67;;
7539;SDS011;3811;49.006;12.076;2023-01-15T13:08:03;0.60;;;0.60;;
7539;SDS011;3811;49.006;12.076;2023-01-15T13:10:34;0.60;;;0.60;;
7539;SDS011;3811;49.006;12.076;2023-01-15T13:13:07;0.60;;;0.60;;
7539;SDS011;3811;49.006;12.076;2023-01-15T13:15:40;0.60;;;0.60;;
7539;SDS011;3811;49.006;12.076;2023-01-15T13:18:11;0.70;;;0.70;;
7539;SDS011;3811;49.006;12.076;2023-01-15T13:20:45;0.50;;;0.50;;
7539;SDS011;3811;49.006;12.076;2023-01-15T13:23:17;0.57;;;0.50;;
7539;SDS011;3811;49.006;12.076;2023-01-15T13:25:53;0.47;;;0.47;;
7539;SDS011;3811;49.006;12.076;2023-01-15T13:28:27;0.67;;;0.67;;
7539;SDS011;3811;49.006;12.076;2023-01-15T13:30:59;0.70;;;0.70;;
7539;SDS011;3811;49.006;12.076;2023-01-15T13:36:05;0.50;;;0.50;;
7539;SDS011;3811;49.006;12.076;2023-01-15T13:38:38;0.70;;;0.70;;
7539;SDS011;3811;49.006;12.076;2023-01-15T13:41:09;0.60;;;0.60;;
7539;SDS011;3811;49.006;12.076;2023-01-15T13:43:37;0.63;;;0.63;;
7539;SDS011;3811;49.006;12.076;2023-01-15T13:46:06;0.70;;;0.70;;
7539;SDS011;3811;49.006;12.076;2023-01-15T13:48:35;0.53;;;0.53;;
7539;SDS011;3811;49.006;12.076;2023-01-15T13:53:51;1.00;;;1.00;;
7539;SDS011;3811;49.006;12.076;2023-01-15T13:56:25;0.70;;;0.70;;
7539;SDS011;3811;49.006;12.076;2023-01-15T13:58:53;0.30;;;0.30;;
7539;SDS011;3811;49.006;12.076;2023-01-15T14:01:22;0.63;;;0.63;;
7539;SDS011;3811;49.006;12.076;2023-01-15T14:04:00;0.40;;;0.40;;
7539;SDS011;3811;49.006;12.076;2023-01-15T14:06:35;0.57;;;0.53;;
7539;SDS011;3811;49.006;12.076;2023-01-15T14:12:00;0.40;;;0.40;;
7539;SDS011;3811;49.006;12.076;2023-01-15T14:14:39;0.50;;;0.50;;
7539;SDS011;3811;49.006;12.076;2023-01-15T14:17:25;0.40;;;0.40;;
7539;SDS011;3811;49.006;12.076;2023-01-15T14:20:00;0.70;;;0.70;;
7539;SDS011;3811;49.006;12.076;2023-01-15T14:22:34;0.60;;;0.60;;
7539;SDS011;3811;49.006;12.076;2023-01-15T14:25:13;0.60;;;0.60;;
7539;SDS011;3811;49.006;12.076;2023-01-15T14:33:03;0.50;;;0.50;;
7539;SDS011;3811;49.006;12.076;2023-01-15T14:35:34;0.43;;;0.43;;
7539;SDS011;3811;49.006;12.076;2023-01-15T14:38:06;0.53;;;0.53;;
7539;SDS011;3811;49.006;12.076;2023-01-15T14:40:39;0.40;;;0.40;;
7539;SDS011;3811;49.006;12.076;2023-01-15T14:43:17;0.47;;;0.43;;
7539;SDS011;3811;49.006;12.076;2023-01-15T14:45:45;0.50;;;0.50;;
7539;SDS011;3811;49.006;12.076;2023-01-15T14:48:19;0.57;;;0.50;;
7539;SDS011;3811;49.006;12.076;2023-01-15T14:51:06;0.50;;;0.50;;
7539;SDS011;3811;49.006;12.076;2023-01-15T14:53:36;0.67;;;0.40;;
7539;SDS011;3811;49.006;12.076;2023-01-15T14:56:14;0.97;;;0.97;;
7539;SDS011;3811;49.006;12.076;2023-01-15T14:58:47;0.70;;;0.70;;
7539;SDS011;3811;49.006;12.076;2023-01-15T15:01:26;0.83;;;0.83;;
7539;SDS011;3811;49.006;12.076;2023-01-15T15:04:14;0.60;;;0.60;;
7539;SDS011;3811;49.006;12.076;2023-01-15T15:06:45;0.87;;;0.50;;
7539;SDS011;3811;49.006;12.076;2023-01-15T15:09:13;0.60;;;0.60;;
7539;SDS011;3811;49.006;12.076;2023-01-15T15:11:48;0.40;;;0.40;;
7539;SDS011;3811;49.006;12.076;2023-01-15T15:14:34;0.60;;;0.60;;
7539;SDS011;3811;49.006;12.076;2023-01-15T15:17:04;0.47;;;0.47;;
7539;SDS011;3811;49.006;12.076;2023-01-15T15:19:49;0.60;;;0.60;;
7539;SDS011;3811;49.006;12.076;2023-01-15T15:22:25;0.50;;;0.50;;
7539;SDS011;3811;49.006;12.076;2023-01-15T15:24:53;0.40;;;0.40;;
7539;SDS011;3811;49.006;12.076;2023-01-15T15:27:23;0.50;;;0.50;;
7539;SDS011;3811;49.006;12.076;2023-01-15T15:30:05;3.00;;;0.60;;
7539;SDS011;3811;49.006;12.076;2023-01-15T15:32:33;0.40;;;0.40;;
7539;SDS011;3811;49.006;12.076;2023-01-15T15:35:06;0.50;;;0.50;;
7539;SDS011;3811;49.006;12.076;2023-01-15T15:37:49;0.40;;;0.40;;
7539;SDS011;3811;49.006;12.076;2023-01-15T15:40:18;0.40;;;0.40;;
7539;SDS011;3811;49.006;12.076;2023-01-15T15:42:48;0.40;;;0.40;;
7539;SDS011;3811;49.006;12.076;2023-01-15T15:45:36;0.50;;;0.50;;
7539;SDS011;3811;49.006;12.076;2023-01-15T15:48:28;1.50;;;0.77;;
7539;SDS011;3811;49.006;12.076;2023-01-15T15:51:26;1.13;;;1.13;;
7539;SDS011;3811;49.006;12.076;2023-01-15T15:56:47;0.50;;;0.50;;
7539;SDS011;3811;49.006;12.076;2023-01-15T15:59:16;0.90;;;0.90;;
7539;SDS011;3811;49.006;12.076;2023-01-15T16:01:52;1.67;;;0.90;;
7539;SDS011;3811;49.006;12.076;2023-01-15T16:04:19;1.13;;;0.80;;
7539;SDS011;3811;49.006;12.076;2023-01-15T16:06:51;0.47;;;0.47;;
7539;SDS011;3811;49.006;12.076;2023-01-15T16:09:18;0.70;;;0.70;;